createdAt,value
2022-10-23T00:01:42.637Z,14.19
2022-10-23T00:04:16.406Z,13.99
2022-10-23T00:06:43.555Z,13.29
2022-10-23T00:09:12.640Z,14.21
2022-10-23T00:11:39.831Z,13.61
2022-10-23T00:14:08.229Z,14.16
2022-10-23T00:16:35.172Z,13.62
2022-10-23T00:19:02.110Z,13.58
2022-10-23T00:21:29.233Z,13.69
2022-10-23T00:23:55.972Z,13.70
2022-10-23T00:26:22.601Z,14.15
2022-10-23T00:28:52.200Z,13.57
2022-10-23T00:31:21.051Z,14.12
2022-10-23T00:33:48.144Z,13.41
2022-10-23T00:36:16.769Z,13.72
2022-10-23T00:38:43.512Z,13.39
2022-10-23T00:41:16.070Z,13.50
2022-10-23T00:44:01.582Z,13.43
2022-10-23T00:46:29.056Z,14.06
2022-10-23T00:48:58.128Z,13.42
2022-10-23T00:51:27.784Z,14.03
2022-10-23T00:54:12.641Z,14.04
2022-10-23T00:56:46.728Z,13.77
2022-10-23T00:59:14.064Z,14.09
2022-10-23T01:01:41.321Z,13.69
2022-10-23T01:04:08.741Z,13.74
2022-10-23T01:06:50.802Z,13.85
2022-10-23T01:09:20.328Z,14.16
2022-10-23T01:11:53.013Z,14.15
2022-10-23T01:14:49.526Z,14.17
2022-10-23T01:17:25.773Z,13.91
2022-10-23T01:20:31.827Z,13.90
2022-10-23T01:23:23.382Z,13.65
2022-10-23T01:26:15.440Z,14.18
2022-10-23T01:28:53.350Z,13.99
2022-10-23T01:31:29.121Z,13.92
2022-10-23T01:34:00.531Z,13.51
2022-10-23T01:36:29.874Z,13.71
2022-10-23T01:39:09.793Z,13.79
2022-10-23T01:42:03.828Z,14.07
2022-10-23T01:44:46.914Z,13.86
2022-10-23T01:47:17.048Z,13.69
2022-10-23T01:49:45.891Z,13.46
2022-10-23T01:52:14.449Z,13.85
2022-10-23T01:54:43.989Z,14.02
2022-10-23T01:57:13.354Z,14.03
2022-10-23T01:59:44.713Z,13.43
2022-10-23T02:02:13.383Z,13.59
2022-10-23T02:04:48.331Z,13.76
2022-10-23T02:07:15.300Z,13.26
2022-10-23T02:09:41.838Z,13.62
2022-10-23T02:12:13.348Z,13.78
2022-10-23T02:14:51.714Z,13.52
2022-10-23T02:17:44.642Z,13.87
2022-10-23T02:20:17.296Z,14.03
2022-10-23T02:22:58.561Z,13.73
2022-10-23T02:25:33.609Z,13.86
2022-10-23T02:28:05.045Z,13.81
2022-10-23T02:30:33.627Z,13.45
2022-10-23T02:33:02.512Z,13.36
2022-10-23T02:35:29.000Z,13.57
2022-10-23T02:38:00.716Z,14.03
2022-10-23T02:40:38.891Z,14.07
2022-10-23T02:43:17.020Z,13.99
2022-10-23T02:45:56.041Z,13.94
2022-10-23T02:48:29.480Z,13.47
2022-10-23T02:51:11.615Z,13.38
2022-10-23T02:54:06.673Z,14.08
2022-10-23T02:56:59.888Z,14.10
2022-10-23T02:59:43.946Z,13.97
2022-10-23T03:02:21.448Z,14.07
2022-10-23T03:04:48.684Z,13.83
2022-10-23T03:07:18.053Z,14.11
2022-10-23T03:09:44.534Z,13.71
2022-10-23T03:12:11.086Z,13.56
2022-10-23T03:14:37.617Z,13.65
2022-10-23T03:17:04.747Z,13.67
2022-10-23T03:19:31.240Z,13.65
2022-10-23T03:21:57.697Z,13.57
2022-10-23T03:24:24.153Z,13.64
2022-10-23T03:26:50.592Z,13.72
2022-10-23T03:29:17.102Z,13.46
2022-10-23T03:31:43.648Z,13.62
2022-10-23T03:34:11.469Z,14.10
2022-10-23T03:36:38.064Z,14.04
2022-10-23T03:39:04.799Z,13.71
2022-10-23T03:41:32.106Z,13.67
2022-10-23T03:43:58.915Z,13.72
2022-10-23T03:46:25.532Z,13.76
2022-10-23T03:48:52.112Z,13.64
2022-10-23T03:51:18.608Z,13.60
2022-10-23T03:53:45.137Z,13.78
2022-10-23T03:56:11.627Z,13.73
2022-10-23T03:58:38.181Z,13.63
2022-10-23T04:01:04.750Z,13.83
2022-10-23T04:03:31.260Z,13.77
2022-10-23T04:05:57.745Z,13.95
2022-10-23T04:08:24.687Z,13.90
2022-10-23T04:10:51.298Z,14.09
2022-10-23T04:13:17.774Z,13.85
2022-10-23T04:15:51.852Z,13.77
2022-10-23T04:18:19.134Z,13.62
2022-10-23T04:20:50.352Z,14.15
2022-10-23T04:23:17.050Z,13.91
2022-10-23T04:25:43.708Z,13.94
2022-10-23T04:28:10.276Z,13.72
2022-10-23T04:30:36.836Z,13.46
2022-10-23T04:33:03.623Z,13.82
2022-10-23T04:35:30.231Z,13.75
2022-10-23T04:37:56.779Z,13.33
2022-10-23T04:40:23.496Z,13.94
2022-10-23T04:42:50.025Z,13.46
2022-10-23T04:45:16.570Z,13.38
2022-10-23T04:47:43.280Z,13.56
2022-10-23T04:50:09.951Z,13.88
2022-10-23T04:52:36.498Z,13.74
2022-10-23T04:55:03.146Z,13.33
2022-10-23T04:57:29.581Z,13.65
2022-10-23T04:59:56.167Z,13.52
2022-10-23T05:02:24.293Z,13.58
2022-10-23T05:04:51.135Z,14.03
2022-10-23T05:07:17.709Z,13.80
2022-10-23T05:09:44.241Z,13.59
2022-10-23T05:12:10.667Z,13.59
2022-10-23T05:14:37.144Z,13.65
2022-10-23T05:17:11.625Z,14.00
2022-10-23T05:19:43.640Z,13.71
2022-10-23T05:22:10.955Z,13.67
2022-10-23T05:24:37.622Z,13.89
2022-10-23T05:27:04.263Z,13.88
2022-10-23T05:29:30.710Z,13.94
2022-10-23T05:32:00.702Z,13.86
2022-10-23T05:34:29.167Z,13.81
2022-10-23T05:36:55.851Z,13.32
2022-10-23T05:39:22.430Z,13.56
2022-10-23T05:41:48.934Z,13.94
2022-10-23T05:44:15.404Z,13.60
2022-10-23T05:46:43.016Z,13.94
2022-10-23T05:49:09.752Z,13.96
2022-10-23T05:51:38.003Z,13.48
2022-10-23T05:54:07.665Z,13.91
2022-10-23T05:56:35.590Z,13.52
2022-10-23T05:59:02.097Z,13.65
2022-10-23T06:01:32.331Z,13.50
2022-10-23T06:04:00.612Z,13.44
2022-10-23T06:06:27.601Z,13.91
2022-10-23T06:08:54.998Z,13.92
2022-10-23T06:11:21.738Z,13.93
2022-10-23T06:13:48.734Z,13.45
2022-10-23T06:16:17.972Z,13.52
2022-10-23T06:18:45.858Z,13.96
2022-10-23T06:21:12.893Z,13.44
2022-10-23T06:23:40.526Z,13.96
2022-10-23T06:26:08.826Z,13.69
2022-10-23T06:28:36.142Z,13.62
2022-10-23T06:31:11.327Z,14.08
2022-10-23T06:33:37.913Z,13.89
2022-10-23T06:36:05.446Z,14.01
2022-10-23T06:38:37.406Z,13.77
2022-10-23T06:41:05.036Z,14.07
2022-10-23T06:43:31.505Z,13.89
2022-10-23T06:46:01.695Z,13.89
2022-10-23T06:48:28.158Z,13.99
2022-10-23T06:50:55.713Z,14.30
2022-10-23T06:53:24.688Z,14.17
2022-10-23T06:55:55.306Z,14.37
2022-10-23T06:58:22.160Z,13.86
2022-10-23T07:00:48.635Z,13.98
2022-10-23T07:03:15.133Z,14.20
2022-10-23T07:05:44.635Z,14.17
2022-10-23T07:08:10.981Z,14.45
2022-10-23T07:10:37.458Z,14.33
2022-10-23T07:13:03.903Z,14.33
2022-10-23T07:15:30.522Z,14.54
2022-10-23T07:17:56.950Z,14.20
2022-10-23T07:20:23.386Z,14.19
2022-10-23T07:22:54.970Z,14.59
2022-10-23T07:25:22.801Z,14.22
2022-10-23T07:27:49.936Z,14.63
2022-10-23T07:30:16.506Z,14.43
2022-10-23T07:32:44.104Z,14.63
2022-10-23T07:35:12.348Z,14.72
2022-10-23T07:37:39.023Z,14.47
2022-10-23T07:40:06.824Z,14.23
2022-10-23T07:42:33.357Z,14.31
2022-10-23T07:44:59.859Z,14.59
2022-10-23T07:47:26.580Z,14.77
2022-10-23T07:49:53.071Z,14.44
2022-10-23T07:52:19.506Z,14.81
2022-10-23T07:54:45.919Z,14.32
2022-10-23T07:57:12.398Z,14.40
2022-10-23T07:59:38.908Z,14.44
2022-10-23T08:02:10.981Z,14.57
2022-10-23T08:04:37.890Z,14.41
2022-10-23T08:07:04.411Z,14.84
2022-10-23T08:09:31.358Z,14.94
2022-10-23T08:11:57.809Z,14.60
2022-10-23T08:14:24.264Z,14.76
2022-10-23T08:16:50.797Z,15.02
2022-10-23T08:19:17.505Z,14.63
2022-10-23T08:21:44.111Z,15.09
2022-10-23T08:24:13.838Z,15.13
2022-10-23T08:26:40.512Z,15.16
2022-10-23T08:29:07.012Z,14.86
2022-10-23T08:31:33.446Z,14.99
2022-10-23T08:33:59.865Z,14.87
2022-10-23T08:36:28.761Z,15.11
2022-10-23T08:38:56.886Z,15.35
2022-10-23T08:41:33.572Z,15.04
2022-10-23T08:44:21.496Z,15.47
2022-10-23T08:47:00.526Z,15.14
2022-10-23T08:49:52.228Z,15.55
2022-10-23T08:52:24.248Z,15.43
2022-10-23T08:55:02.850Z,15.72
2022-10-23T08:57:39.988Z,15.53
2022-10-23T09:00:14.503Z,15.74
2022-10-23T09:02:50.376Z,15.64
2022-10-23T09:05:31.601Z,15.83
2022-10-23T09:08:29.176Z,15.77
2022-10-23T09:10:59.490Z,15.97
2022-10-23T09:13:47.709Z,15.90
2022-10-23T09:16:32.226Z,16.09
2022-10-23T09:18:59.389Z,16.15
2022-10-23T09:21:29.012Z,16.21
2022-10-23T09:23:56.311Z,16.08
2022-10-23T09:26:23.231Z,16.13
2022-10-23T09:28:52.663Z,16.34
2022-10-23T09:31:19.529Z,16.41
2022-10-23T09:34:01.216Z,16.48
2022-10-23T09:36:29.546Z,16.34
2022-10-23T09:38:58.912Z,16.57
2022-10-23T09:41:28.396Z,16.63
2022-10-23T09:44:07.259Z,16.69
2022-10-23T09:46:54.942Z,16.58
2022-10-23T09:49:25.631Z,16.78
2022-10-23T09:52:05.791Z,16.81
2022-10-23T09:54:37.306Z,16.69
2022-10-23T09:57:40.513Z,16.96
2022-10-23T10:00:27.939Z,17.06
2022-10-23T10:03:01.011Z,16.76
2022-10-23T10:05:33.126Z,16.76
2022-10-23T10:08:07.385Z,17.31
2022-10-23T10:10:37.860Z,17.40
2022-10-23T10:13:31.284Z,17.21
2022-10-23T10:16:28.986Z,17.05
2022-10-23T10:19:04.416Z,17.71
2022-10-23T10:21:54.890Z,17.41
2022-10-23T10:24:30.171Z,17.61
2022-10-23T10:27:31.225Z,17.72
2022-10-23T10:30:06.516Z,17.72
2022-10-23T10:32:45.390Z,17.74
2022-10-23T10:35:37.362Z,17.41
2022-10-23T10:38:25.489Z,17.71
2022-10-23T10:41:20.395Z,17.54
2022-10-23T10:43:57.343Z,17.46
2022-10-23T10:46:42.547Z,17.63
2022-10-23T10:49:41.390Z,17.50
2022-10-23T10:52:21.698Z,17.43
2022-10-23T10:55:17.721Z,17.69
2022-10-23T10:57:48.487Z,17.24
2022-10-23T11:00:20.557Z,17.70
2022-10-23T11:03:04.962Z,17.73
2022-10-23T11:05:39.623Z,17.44
2022-10-23T11:08:49.981Z,17.44
2022-10-23T11:11:33.245Z,17.54
2022-10-23T11:13:59.842Z,17.40
2022-10-23T11:16:31.887Z,17.76
2022-10-23T11:19:19.845Z,17.68
2022-10-23T11:21:46.227Z,17.18
2022-10-23T11:24:20.465Z,17.61
2022-10-23T11:27:20.578Z,17.58
2022-10-23T11:29:49.106Z,17.59
2022-10-23T11:32:43.650Z,17.31
2022-10-23T11:35:32.046Z,17.70
2022-10-23T11:38:16.610Z,17.49
2022-10-23T11:40:46.361Z,17.68
2022-10-23T11:43:12.957Z,17.45
2022-10-23T11:45:40.951Z,17.91
2022-10-23T11:48:36.767Z,17.77
2022-10-23T11:51:05.239Z,18.10
2022-10-23T11:53:31.730Z,18.22
2022-10-23T11:55:59.190Z,18.25
2022-10-23T11:58:32.131Z,18.11
2022-10-23T12:01:07.017Z,18.19
2022-10-23T12:03:47.666Z,18.02
2022-10-23T12:06:25.149Z,18.34
2022-10-23T12:09:04.925Z,18.20
2022-10-23T12:11:47.206Z,18.42
2022-10-23T12:14:37.381Z,18.41
2022-10-23T12:17:24.916Z,18.24
2022-10-23T12:19:55.757Z,18.48
2022-10-23T12:22:28.147Z,18.31
2022-10-23T12:25:03.911Z,18.34
2022-10-23T12:27:45.221Z,18.47
2022-10-23T12:30:20.722Z,18.47
2022-10-23T12:33:02.762Z,18.33
2022-10-23T12:35:53.565Z,18.37
2022-10-23T12:38:27.080Z,18.09
2022-10-23T12:41:00.340Z,18.24
2022-10-23T12:43:31.217Z,18.32
2022-10-23T12:46:05.007Z,18.30
2022-10-23T12:48:33.151Z,18.57
2022-10-23T12:50:59.615Z,18.58
2022-10-23T12:53:26.032Z,18.63
2022-10-23T12:58:34.147Z,18.59
2022-10-23T13:01:03.867Z,18.63
2022-10-23T13:03:32.578Z,18.64
2022-10-23T13:06:02.531Z,18.66
2022-10-23T13:08:41.136Z,18.35
2022-10-23T13:11:12.033Z,18.40
2022-10-23T13:13:40.642Z,18.50
2022-10-23T13:16:19.374Z,18.63
2022-10-23T13:18:46.062Z,18.57
2022-10-23T13:21:24.706Z,18.51
2022-10-23T13:23:52.709Z,18.70
2022-10-23T13:26:28.735Z,18.74
2022-10-23T13:28:56.175Z,18.41
2022-10-23T13:31:26.747Z,18.66
2022-10-23T13:33:59.464Z,18.82
2022-10-23T13:36:30.049Z,18.70
2022-10-23T13:39:00.054Z,18.85
2022-10-23T13:41:28.805Z,18.83
2022-10-23T13:43:55.238Z,18.75
2022-10-23T13:46:24.324Z,18.58
2022-10-23T13:48:51.381Z,18.72
2022-10-23T13:51:23.422Z,18.59
2022-10-23T13:53:50.818Z,18.71
2022-10-23T13:56:20.669Z,18.89
2022-10-23T13:58:47.553Z,18.89
2022-10-23T14:01:27.744Z,18.62
2022-10-23T14:03:56.035Z,18.80
2022-10-23T14:06:22.482Z,18.37
2022-10-23T14:08:49.075Z,18.79
2022-10-23T14:11:17.575Z,18.77
2022-10-23T14:13:44.630Z,18.65
2022-10-23T14:16:16.755Z,18.54
2022-10-23T14:18:43.606Z,18.75
2022-10-23T14:21:13.538Z,18.80
2022-10-23T14:23:40.246Z,18.60
2022-10-23T14:26:12.997Z,18.58
2022-10-23T14:28:39.448Z,18.49
2022-10-23T14:31:17.324Z,18.70
2022-10-23T14:33:45.571Z,18.53
2022-10-23T14:36:12.511Z,18.63
2022-10-23T14:38:39.070Z,18.46
2022-10-23T14:41:16.116Z,18.65
2022-10-23T14:43:43.072Z,18.60
2022-10-23T14:46:11.191Z,18.44
2022-10-23T14:48:40.214Z,18.52
2022-10-23T14:51:15.427Z,18.47
2022-10-23T14:53:42.022Z,18.31
2022-10-23T14:56:08.530Z,18.36
2022-10-23T14:58:35.010Z,18.30
2022-10-23T15:01:01.863Z,18.45
2022-10-23T15:03:28.940Z,18.39
2022-10-23T15:05:55.842Z,18.25
2022-10-23T15:08:23.427Z,18.27
2022-10-23T15:10:50.349Z,18.41
2022-10-23T15:13:16.965Z,18.40
2022-10-23T15:15:43.779Z,18.35
2022-10-23T15:18:10.305Z,18.26
2022-10-23T15:20:36.858Z,18.05
2022-10-23T15:23:03.693Z,18.37
2022-10-23T15:25:30.125Z,18.04
2022-10-23T15:27:56.555Z,18.09
2022-10-23T15:30:23.297Z,18.29
2022-10-23T15:32:49.829Z,18.38
2022-10-23T15:35:16.534Z,18.23
2022-10-23T15:37:43.274Z,18.09
2022-10-23T15:40:10.575Z,18.10
2022-10-23T15:42:37.073Z,18.03
2022-10-23T15:45:03.696Z,18.09
2022-10-23T15:47:30.130Z,18.07
2022-10-23T15:49:56.607Z,18.25
2022-10-23T15:52:23.119Z,18.15
2022-10-23T15:54:49.619Z,18.21
2022-10-23T15:57:16.205Z,18.21
2022-10-23T15:59:42.735Z,18.01
2022-10-23T16:02:11.574Z,18.09
2022-10-23T16:04:38.121Z,18.19
2022-10-23T16:07:04.635Z,18.08
2022-10-23T16:09:31.102Z,18.14
2022-10-23T16:11:57.614Z,17.94
2022-10-23T16:14:24.102Z,17.82
2022-10-23T16:16:50.530Z,18.05
2022-10-23T16:19:17.072Z,17.69
2022-10-23T16:21:43.500Z,17.79
2022-10-23T16:24:10.386Z,17.93
2022-10-23T16:26:37.830Z,17.92
2022-10-23T16:29:07.583Z,17.63
2022-10-23T16:31:35.427Z,18.10
2022-10-23T16:34:04.604Z,17.99
2022-10-23T16:36:31.197Z,17.83
2022-10-23T16:38:57.939Z,17.77
2022-10-23T16:41:25.066Z,17.94
2022-10-23T16:43:54.857Z,17.42
2022-10-23T16:47:06.746Z,17.96
2022-10-23T16:50:05.782Z,17.90
2022-10-23T16:52:52.088Z,16.88
2022-10-23T16:55:32.206Z,17.59
2022-10-23T16:58:09.393Z,17.22
2022-10-23T17:12:22.479Z,16.81
2022-10-23T17:17:44.880Z,17.19
2022-10-23T17:20:15.447Z,16.86
2022-10-23T17:22:42.491Z,16.79
2022-10-23T17:25:10.388Z,16.90
2022-10-23T17:27:37.187Z,17.11
2022-10-23T17:30:10.425Z,16.53
2022-10-23T17:32:39.291Z,17.10
2022-10-23T17:35:07.010Z,17.15
2022-10-23T17:37:39.555Z,17.04
2022-10-23T17:40:07.123Z,16.56
2022-10-23T17:45:45.532Z,17.27
2022-10-23T17:48:13.909Z,16.70
2022-10-23T17:50:40.953Z,16.51
2022-10-23T17:53:08.047Z,17.04
2022-10-23T17:55:40.849Z,16.88
2022-10-23T17:58:08.801Z,17.17
2022-10-23T18:00:39.187Z,17.01
2022-10-23T18:03:05.810Z,16.77
2022-10-23T18:05:33.203Z,16.87
2022-10-23T18:08:06.020Z,16.85
2022-10-23T18:10:35.944Z,16.95
2022-10-23T18:13:02.639Z,16.40
2022-10-23T18:15:29.527Z,16.31
2022-10-23T18:17:59.356Z,17.01
2022-10-23T18:20:55.746Z,16.36
2022-10-23T18:23:25.705Z,16.46
2022-10-23T18:25:52.385Z,16.72
2022-10-23T18:28:19.916Z,16.51
2022-10-23T18:30:52.192Z,16.44
2022-10-23T18:33:22.212Z,16.58
2022-10-23T18:35:49.385Z,16.47
2022-10-23T18:38:16.374Z,16.53
2022-10-23T18:40:44.181Z,16.62
2022-10-23T18:43:14.939Z,16.30
2022-10-23T18:45:46.863Z,16.11
2022-10-23T18:48:13.574Z,16.31
2022-10-23T18:50:43.235Z,16.61
2022-10-23T18:53:09.823Z,16.34
2022-10-23T18:55:36.417Z,16.69
2022-10-23T18:58:02.883Z,16.42
2022-10-23T19:00:29.345Z,16.71
2022-10-23T19:02:56.106Z,16.53
2022-10-23T19:05:22.973Z,16.38
2022-10-23T19:07:50.199Z,16.30
2022-10-23T19:10:21.713Z,16.21
2022-10-23T19:12:48.251Z,16.26
2022-10-23T19:18:06.442Z,15.77
2022-10-23T19:20:37.060Z,16.44
2022-10-23T19:23:15.280Z,16.32
2022-10-23T19:25:47.481Z,16.16
2022-10-23T19:28:14.337Z,16.23
2022-10-23T19:30:43.642Z,16.52
2022-10-23T19:33:10.291Z,16.13
2022-10-23T19:35:37.047Z,16.44
2022-10-23T19:38:03.655Z,16.30
2022-10-23T19:40:30.323Z,16.37
2022-10-23T19:42:56.904Z,15.75
2022-10-23T19:45:23.509Z,16.07
2022-10-23T19:47:50.068Z,15.80
2022-10-23T19:50:16.575Z,15.95
2022-10-23T19:52:45.319Z,16.06
2022-10-23T19:55:11.875Z,15.86
2022-10-23T19:57:38.563Z,15.66
2022-10-23T20:00:06.557Z,15.90
2022-10-23T20:05:06.195Z,15.90
2022-10-23T20:07:33.095Z,15.69
2022-10-23T20:10:00.259Z,16.00
2022-10-23T20:12:27.556Z,16.10
2022-10-23T20:14:54.973Z,15.98
2022-10-23T20:17:22.164Z,15.57
2022-10-23T20:19:48.970Z,15.81
2022-10-23T20:22:16.501Z,16.28
2022-10-23T20:24:43.077Z,16.27
2022-10-23T20:27:10.448Z,16.11
2022-10-23T20:29:37.128Z,16.19
2022-10-23T20:32:03.739Z,16.10
2022-10-23T20:34:33.291Z,16.16
2022-10-23T20:37:00.622Z,16.45
2022-10-23T20:39:30.797Z,16.44
2022-10-23T20:41:57.498Z,16.33
2022-10-23T20:44:24.076Z,15.87
2022-10-23T20:46:50.588Z,16.22
2022-10-23T20:49:17.221Z,16.36
2022-10-23T20:51:43.875Z,16.12
2022-10-23T20:54:27.530Z,16.43
2022-10-23T20:56:54.483Z,15.98
2022-10-23T20:59:21.055Z,16.43
2022-10-23T21:01:50.048Z,16.60
2022-10-23T21:04:28.712Z,16.38
2022-10-23T21:07:09.306Z,15.97
2022-10-23T21:09:37.768Z,16.43
2022-10-23T21:12:06.294Z,16.40
2022-10-23T21:14:33.185Z,16.66
2022-10-23T21:16:59.748Z,16.75
2022-10-23T21:19:26.223Z,16.45
2022-10-23T21:21:52.737Z,16.46
2022-10-23T21:24:19.207Z,16.84
2022-10-23T21:26:45.849Z,16.55
2022-10-23T21:29:21.011Z,16.69
2022-10-23T21:31:59.400Z,16.85
2022-10-23T21:34:26.915Z,16.65
2022-10-23T21:37:11.912Z,16.43
2022-10-23T21:39:41.568Z,16.77
2022-10-23T21:42:08.254Z,16.74
2022-10-23T21:44:34.759Z,16.51
2022-10-23T21:47:01.224Z,16.27
2022-10-23T21:49:27.662Z,16.34
2022-10-23T21:51:54.941Z,16.63
2022-10-23T21:54:21.691Z,16.45
2022-10-23T21:56:51.268Z,16.53
2022-10-23T21:59:18.814Z,16.60
2022-10-23T22:01:47.043Z,16.18
2022-10-23T22:04:15.352Z,16.58
2022-10-23T22:06:43.760Z,16.57
2022-10-23T22:09:13.419Z,16.38
2022-10-23T22:11:40.319Z,16.18
2022-10-23T22:14:06.990Z,16.23
2022-10-23T22:16:33.434Z,16.36
2022-10-23T22:18:59.945Z,16.28
2022-10-23T22:21:28.343Z,16.32
2022-10-23T22:23:57.041Z,16.58
2022-10-23T22:26:32.385Z,16.58
2022-10-23T22:29:02.275Z,16.57
2022-10-23T22:31:31.536Z,16.07
2022-10-23T22:33:59.019Z,16.47
2022-10-23T22:36:26.322Z,16.46
2022-10-23T22:38:54.298Z,16.47
2022-10-23T22:41:21.005Z,16.57
2022-10-23T22:43:47.518Z,16.04
2022-10-23T22:46:20.180Z,16.57
2022-10-23T22:48:46.688Z,16.57
2022-10-23T22:51:15.165Z,16.58
2022-10-23T22:53:42.202Z,16.55
2022-10-23T22:56:11.166Z,16.53
2022-10-23T22:58:38.005Z,16.31
2022-10-23T23:01:20.772Z,16.28
2022-10-23T23:03:47.581Z,16.24
2022-10-23T23:06:18.297Z,16.47
2022-10-23T23:08:45.379Z,16.25
2022-10-23T23:11:14.288Z,16.43
2022-10-23T23:13:42.504Z,16.27
2022-10-23T23:16:24.206Z,16.16
2022-10-23T23:18:51.447Z,16.44
2022-10-23T23:21:18.365Z,16.04
2022-10-23T23:23:45.996Z,16.48
2022-10-23T23:26:21.741Z,16.33
2022-10-23T23:28:56.442Z,16.32
2022-10-23T23:31:25.761Z,16.33
2022-10-23T23:33:53.670Z,16.46
2022-10-23T23:36:25.839Z,16.47
2022-10-23T23:38:52.914Z,16.28
2022-10-23T23:41:20.665Z,16.14
2022-10-23T23:43:47.401Z,16.02
2022-10-23T23:46:14.387Z,16.39
2022-10-23T23:48:42.561Z,16.25
2022-10-23T23:51:09.243Z,16.39
2022-10-23T23:53:35.778Z,16.27
2022-10-23T23:56:02.271Z,16.20
2022-10-23T23:58:28.736Z,16.39
